createdAt,value
2022-07-30T00:00:44.841Z,57.21
2022-07-30T00:02:44.900Z,56.92
2022-07-30T00:03:45.002Z,57.01
2022-07-30T00:04:44.963Z,56.92
2022-07-30T00:05:44.998Z,57.01
2022-07-30T00:06:45.329Z,57.01
2022-07-30T00:07:45.065Z,57.01
2022-07-30T00:08:45.100Z,57.11
2022-07-30T00:09:45.152Z,56.92
2022-07-30T00:10:45.157Z,57.01
2022-07-30T00:11:45.203Z,57.11
2022-07-30T00:12:45.219Z,57.11
2022-07-30T00:13:45.593Z,57.11
2022-07-30T00:14:45.283Z,57.11
2022-07-30T00:15:45.317Z,57.01
2022-07-30T00:16:45.394Z,57.01
2022-07-30T00:17:46.633Z,57.01
2022-07-30T00:18:45.414Z,57.01
2022-07-30T00:19:45.455Z,56.92
2022-07-30T00:20:45.730Z,57.01
2022-07-30T00:21:45.511Z,57.11
2022-07-30T00:22:45.544Z,57.01
2022-07-30T00:24:01.615Z,57.01
2022-07-30T00:24:45.607Z,57.01
2022-07-30T00:25:45.657Z,57.21
2022-07-30T00:26:45.919Z,57.21
2022-07-30T00:27:45.702Z,57.31
2022-07-30T00:28:45.732Z,57.21
2022-07-30T00:29:45.767Z,57.21
2022-07-30T00:30:45.850Z,57.21
2022-07-30T00:31:45.831Z,57.21
2022-07-30T00:32:46.167Z,57.11
2022-07-30T00:33:45.895Z,57.21
2022-07-30T00:34:45.943Z,57.11
2022-07-30T00:35:45.960Z,57.11
2022-07-30T00:36:45.990Z,57.21
2022-07-30T00:37:46.023Z,57.50
2022-07-30T00:38:46.160Z,56.92
2022-07-30T00:39:46.093Z,57.21
2022-07-30T00:40:46.119Z,57.11
2022-07-30T00:41:46.153Z,56.89
2022-07-30T00:42:46.201Z,57.08
2022-07-30T00:43:46.214Z,57.31
2022-07-30T00:44:46.546Z,57.31
2022-07-30T00:45:46.329Z,57.11
2022-07-30T00:46:46.322Z,57.08
2022-07-30T00:47:46.342Z,57.18
2022-07-30T00:48:46.431Z,57.50
2022-07-30T00:49:46.410Z,57.50
2022-07-30T00:50:46.737Z,57.50
2022-07-30T00:51:46.770Z,57.60
2022-07-30T00:52:46.504Z,57.21
2022-07-30T00:53:46.558Z,57.50
2022-07-30T00:54:46.564Z,57.37
2022-07-30T00:55:46.599Z,57.50
2022-07-30T00:56:46.644Z,57.47
2022-07-30T00:58:46.696Z,57.50
2022-07-30T00:59:46.728Z,57.37
2022-07-30T01:00:46.792Z,57.47
2022-07-30T01:01:46.814Z,57.47
2022-07-30T01:02:46.821Z,57.37
2022-07-30T01:03:46.855Z,57.47
2022-07-30T01:04:46.888Z,57.47
2022-07-30T01:05:47.166Z,57.37
2022-07-30T01:06:46.949Z,57.37
2022-07-30T01:07:46.982Z,57.57
2022-07-30T01:08:47.019Z,57.60
2022-07-30T01:09:48.090Z,57.47
2022-07-30T01:10:47.075Z,57.47
2022-07-30T01:11:47.117Z,57.47
2022-07-30T01:12:47.160Z,57.47
2022-07-30T01:13:47.189Z,57.47
2022-07-30T01:14:47.203Z,57.57
2022-07-30T01:15:47.236Z,57.37
2022-07-30T01:16:47.327Z,57.57
2022-07-30T01:18:47.336Z,57.47
2022-07-30T01:19:47.366Z,57.47
2022-07-30T01:20:47.397Z,57.47
2022-07-30T01:21:47.434Z,57.57
2022-07-30T01:22:47.458Z,57.47
2022-07-30T01:24:47.531Z,57.47
2022-07-30T01:25:47.556Z,57.57
2022-07-30T01:26:47.589Z,57.47
2022-07-30T01:27:47.621Z,57.08
2022-07-30T01:28:47.651Z,57.18
2022-07-30T01:29:47.683Z,57.37
2022-07-30T01:30:47.714Z,57.57
2022-07-30T01:31:48.184Z,57.18
2022-07-30T01:32:47.783Z,57.57
2022-07-30T01:34:47.846Z,57.47
2022-07-30T01:35:47.873Z,57.57
2022-07-30T01:36:47.906Z,57.18
2022-07-30T01:38:47.968Z,57.37
2022-07-30T01:39:48.010Z,57.18
2022-07-30T01:41:48.065Z,57.47
2022-07-30T01:42:48.095Z,57.47
2022-07-30T01:43:48.129Z,57.47
2022-07-30T01:44:48.161Z,57.37
2022-07-30T01:45:48.277Z,57.37
2022-07-30T01:46:48.223Z,57.28
2022-07-30T01:47:48.255Z,57.18
2022-07-30T01:48:48.378Z,57.28
2022-07-30T01:49:48.319Z,57.28
2022-07-30T01:50:48.354Z,57.28
2022-07-30T01:51:48.384Z,57.28
2022-07-30T01:52:49.086Z,57.28
2022-07-30T01:53:48.444Z,56.98
2022-07-30T01:54:48.480Z,57.28
2022-07-30T01:55:48.779Z,56.98
2022-07-30T01:56:48.547Z,57.37
2022-07-30T01:57:48.572Z,57.28
2022-07-30T01:59:48.639Z,57.28
2022-07-30T02:00:48.748Z,57.18
2022-07-30T02:02:48.747Z,57.18
2022-07-30T02:03:49.090Z,57.37
2022-07-30T02:04:48.797Z,57.67
2022-07-30T02:05:48.829Z,57.28
2022-07-30T02:06:48.882Z,57.37
2022-07-30T02:07:48.945Z,57.67
2022-07-30T02:08:48.926Z,57.57
2022-07-30T02:09:48.965Z,57.37
2022-07-30T02:10:48.985Z,57.28
2022-07-30T02:11:49.017Z,57.37
2022-07-30T02:12:49.062Z,57.37
2022-07-30T02:15:49.151Z,57.57
2022-07-30T02:16:49.587Z,57.37
2022-07-30T02:17:49.216Z,57.37
2022-07-30T02:18:49.242Z,57.37
2022-07-30T02:19:49.276Z,57.37
2022-07-30T02:20:49.477Z,57.47
2022-07-30T02:21:50.621Z,57.57
2022-07-30T02:22:49.768Z,57.08
2022-07-30T02:23:49.401Z,57.37
2022-07-30T02:24:49.431Z,57.37
2022-07-30T02:27:49.526Z,57.67
2022-07-30T02:28:49.562Z,57.08
2022-07-30T02:29:49.590Z,57.37
2022-07-30T02:30:49.622Z,57.37
2022-07-30T02:31:49.682Z,57.57
2022-07-30T02:32:49.684Z,57.28
2022-07-30T02:33:49.715Z,57.67
2022-07-30T02:34:49.745Z,57.67
2022-07-30T02:35:49.779Z,57.44
2022-07-30T02:36:49.911Z,57.08
2022-07-30T02:37:49.844Z,57.37
2022-07-30T02:38:49.877Z,57.67
2022-07-30T02:39:49.911Z,57.28
2022-07-30T02:40:50.251Z,57.37
2022-07-30T02:41:50.159Z,57.57
2022-07-30T02:43:50.033Z,57.67
2022-07-30T02:44:50.065Z,57.37
2022-07-30T02:46:50.245Z,57.25
2022-07-30T02:47:50.159Z,57.57
2022-07-30T02:48:50.253Z,57.28
2022-07-30T02:49:50.223Z,57.34
2022-07-30T02:50:50.263Z,57.25
2022-07-30T02:51:50.295Z,57.37
2022-07-30T02:52:50.320Z,57.64
2022-07-30T02:53:51.898Z,57.28
2022-07-30T02:54:50.386Z,57.44
2022-07-30T02:55:50.409Z,57.28
2022-07-30T02:56:50.452Z,57.57
2022-07-30T02:57:50.473Z,57.37
2022-07-30T02:58:50.505Z,57.18
2022-07-30T02:59:50.541Z,57.08
2022-07-30T03:00:50.636Z,57.25
2022-07-30T03:01:50.658Z,57.47
2022-07-30T03:02:50.647Z,57.37
2022-07-30T03:03:50.663Z,57.37
2022-07-30T03:05:50.736Z,57.34
2022-07-30T03:06:50.871Z,57.47
2022-07-30T03:07:50.792Z,57.28
2022-07-30T03:09:52.507Z,57.28
2022-07-30T03:10:50.885Z,57.57
2022-07-30T03:11:50.916Z,57.54
2022-07-30T03:12:50.947Z,57.25
2022-07-30T03:13:50.977Z,57.44
2022-07-30T03:14:51.010Z,57.28
2022-07-30T03:15:51.114Z,57.15
2022-07-30T03:16:51.075Z,57.44
2022-07-30T03:17:51.111Z,57.54
2022-07-30T03:18:51.143Z,57.34
2022-07-30T03:19:51.167Z,57.73
2022-07-30T03:20:51.209Z,57.34
2022-07-30T03:21:51.234Z,57.34
2022-07-30T03:22:51.265Z,57.34
2022-07-30T03:24:51.333Z,57.06
2022-07-30T03:25:51.459Z,57.34
2022-07-30T03:26:51.388Z,57.34
2022-07-30T03:27:51.424Z,57.34
2022-07-30T03:29:51.485Z,57.44
2022-07-30T03:30:51.556Z,57.25
2022-07-30T03:31:51.939Z,57.06
2022-07-30T03:32:51.580Z,57.25
2022-07-30T03:35:51.673Z,57.15
2022-07-30T03:36:51.713Z,57.37
2022-07-30T03:37:51.740Z,57.25
2022-07-30T03:38:52.070Z,57.18
2022-07-30T03:39:51.807Z,57.06
2022-07-30T03:40:51.840Z,57.25
2022-07-30T03:41:51.874Z,57.37
2022-07-30T03:42:51.895Z,57.25
2022-07-30T03:43:51.924Z,57.25
2022-07-30T03:44:51.959Z,57.54
2022-07-30T03:45:52.289Z,57.54
2022-07-30T03:47:52.056Z,57.06
2022-07-30T03:48:52.178Z,57.06
2022-07-30T03:49:52.115Z,57.06
2022-07-30T03:50:52.147Z,57.25
2022-07-30T03:51:52.179Z,56.96
2022-07-30T03:52:52.232Z,57.25
2022-07-30T03:53:52.244Z,57.44
2022-07-30T03:54:52.275Z,57.25
2022-07-30T03:55:52.310Z,57.25
2022-07-30T03:56:52.343Z,57.25
2022-07-30T03:57:52.371Z,57.06
2022-07-30T03:58:52.650Z,57.06
2022-07-30T03:59:52.440Z,57.25
2022-07-30T04:00:52.512Z,57.15
2022-07-30T04:01:52.653Z,57.06
2022-07-30T04:02:52.554Z,57.28
2022-07-30T04:04:52.624Z,57.25
2022-07-30T04:05:52.623Z,57.25
2022-07-30T04:06:52.655Z,57.25
2022-07-30T04:07:52.699Z,57.25
2022-07-30T04:08:52.731Z,57.25
2022-07-30T04:09:52.748Z,57.34
2022-07-30T04:10:52.779Z,57.44
2022-07-30T04:11:52.815Z,57.15
2022-07-30T04:12:52.847Z,57.34
2022-07-30T04:13:52.876Z,57.34
2022-07-30T04:14:52.926Z,57.34
2022-07-30T04:16:04.910Z,57.44
2022-07-30T04:16:53.062Z,57.34
2022-07-30T04:17:52.999Z,57.34
2022-07-30T04:18:53.037Z,57.44
2022-07-30T04:19:53.062Z,57.44
2022-07-30T04:20:53.094Z,57.34
2022-07-30T04:21:53.136Z,57.34
2022-07-30T04:22:53.412Z,57.34
2022-07-30T04:24:02.217Z,57.34
2022-07-30T04:24:53.224Z,57.15
2022-07-30T04:26:53.281Z,57.15
2022-07-30T04:27:58.328Z,57.15
2022-07-30T04:28:53.344Z,57.15
2022-07-30T04:29:53.630Z,57.54
2022-07-30T04:30:53.463Z,57.44
2022-07-30T04:31:53.453Z,57.54
2022-07-30T04:32:53.472Z,57.54
2022-07-30T04:33:53.504Z,57.44
2022-07-30T04:34:53.568Z,57.25
2022-07-30T04:35:53.570Z,57.25
2022-07-30T04:36:53.602Z,57.06
2022-07-30T04:37:53.630Z,57.25
2022-07-30T04:38:53.659Z,57.06
2022-07-30T04:39:53.693Z,57.06
2022-07-30T04:40:53.723Z,57.25
2022-07-30T04:41:53.759Z,57.25
2022-07-30T04:42:54.036Z,57.06
2022-07-30T04:43:53.823Z,57.06
2022-07-30T04:44:53.863Z,56.76
2022-07-30T04:45:53.884Z,57.25
2022-07-30T04:46:53.990Z,57.06
2022-07-30T04:47:53.951Z,57.06
2022-07-30T04:48:54.059Z,56.76
2022-07-30T04:49:54.033Z,57.15
2022-07-30T04:50:54.040Z,56.76
2022-07-30T04:51:54.073Z,56.96
2022-07-30T04:52:54.101Z,57.28
2022-07-30T04:53:54.134Z,57.34
2022-07-30T04:54:54.163Z,57.25
2022-07-30T04:55:54.297Z,57.25
2022-07-30T04:56:54.271Z,57.25
2022-07-30T04:57:54.266Z,57.06
2022-07-30T04:58:54.289Z,57.25
2022-07-30T04:59:54.326Z,57.06
2022-07-30T05:00:54.355Z,57.15
2022-07-30T05:01:54.731Z,57.34
2022-07-30T05:02:54.420Z,57.37
2022-07-30T05:03:54.452Z,57.44
2022-07-30T05:05:57.455Z,57.44
2022-07-30T05:06:54.546Z,57.15
2022-07-30T05:07:54.827Z,57.54
2022-07-30T05:08:54.611Z,57.54
2022-07-30T05:09:54.645Z,57.57
2022-07-30T05:11:54.699Z,57.44
2022-07-30T05:12:54.738Z,57.54
2022-07-30T05:13:54.764Z,57.44
2022-07-30T05:14:55.134Z,57.44
2022-07-30T05:15:54.923Z,57.37
2022-07-30T05:16:54.862Z,57.47
2022-07-30T05:17:54.917Z,57.44
2022-07-30T05:18:54.924Z,57.37
2022-07-30T05:19:55.053Z,57.18
2022-07-30T05:20:54.986Z,57.37
2022-07-30T05:21:55.269Z,57.44
2022-07-30T05:22:55.045Z,57.34
2022-07-30T05:23:55.083Z,57.44
2022-07-30T05:24:55.111Z,57.47
2022-07-30T05:25:56.048Z,57.54
2022-07-30T05:26:55.172Z,57.25
2022-07-30T05:27:55.265Z,57.34
2022-07-30T05:28:56.915Z,57.64
2022-07-30T05:29:55.469Z,57.44
2022-07-30T05:30:55.324Z,57.64
2022-07-30T05:31:55.338Z,57.64
2022-07-30T05:32:56.104Z,57.34
2022-07-30T05:33:55.396Z,57.25
2022-07-30T05:35:55.457Z,57.73
2022-07-30T05:36:55.489Z,58.03
2022-07-30T05:37:55.523Z,57.83
2022-07-30T05:38:55.556Z,58.22
2022-07-30T05:39:59.267Z,57.83
2022-07-30T05:40:55.620Z,58.12
2022-07-30T05:41:55.649Z,58.12
2022-07-30T05:42:55.690Z,57.73
2022-07-30T05:43:56.241Z,57.93
2022-07-30T05:44:55.745Z,58.31
2022-07-30T05:45:55.846Z,58.12
2022-07-30T05:46:55.815Z,58.03
2022-07-30T05:47:55.847Z,58.03
2022-07-30T05:48:56.224Z,58.90
2022-07-30T05:49:55.905Z,58.70
2022-07-30T05:51:55.979Z,58.41
2022-07-30T05:52:56.005Z,58.80
2022-07-30T05:53:56.040Z,59.97
2022-07-30T05:54:56.075Z,58.90
2022-07-30T05:55:56.095Z,58.80
2022-07-30T05:56:56.124Z,59.19
2022-07-30T05:57:56.255Z,58.90
2022-07-30T05:59:56.225Z,59.58
2022-07-30T06:01:56.390Z,59.06
2022-07-30T06:02:56.611Z,59.09
2022-07-30T06:03:56.344Z,59.16
2022-07-30T06:04:56.453Z,58.87
2022-07-30T06:05:56.402Z,58.87
2022-07-30T06:06:56.435Z,59.36
2022-07-30T06:07:56.469Z,59.06
2022-07-30T06:08:56.498Z,59.28
2022-07-30T06:09:56.831Z,59.09
2022-07-30T06:10:56.561Z,59.00
2022-07-30T06:11:57.573Z,59.19
2022-07-30T06:12:56.677Z,59.00
2022-07-30T06:13:56.650Z,59.28
2022-07-30T06:14:56.687Z,59.00
2022-07-30T06:15:56.848Z,58.80
2022-07-30T06:16:57.074Z,58.61
2022-07-30T06:17:57.295Z,59.28
2022-07-30T06:18:56.830Z,59.00
2022-07-30T06:19:56.842Z,58.90
2022-07-30T06:20:56.900Z,58.70
2022-07-30T06:22:01.492Z,58.80
2022-07-30T06:22:57.197Z,58.90
2022-07-30T06:23:56.967Z,59.00
2022-07-30T06:24:57.000Z,59.00
2022-07-30T06:25:57.031Z,59.09
2022-07-30T06:26:57.080Z,58.70
2022-07-30T06:27:57.094Z,58.61
2022-07-30T06:28:57.478Z,58.41
2022-07-30T06:29:57.191Z,58.61
2022-07-30T06:30:57.298Z,58.51
2022-07-30T06:31:57.221Z,58.41
2022-07-30T06:32:57.325Z,58.41
2022-07-30T06:33:57.283Z,58.31
2022-07-30T06:35:04.314Z,58.70
2022-07-30T06:35:57.394Z,58.31
2022-07-30T06:36:57.617Z,58.70
2022-07-30T06:38:07.485Z,58.70
2022-07-30T06:39:58.724Z,58.70
2022-07-30T06:41:02.544Z,58.51
2022-07-30T06:41:57.539Z,58.70
2022-07-30T06:42:57.567Z,58.51
2022-07-30T06:43:57.634Z,58.22
2022-07-30T06:44:57.630Z,58.03
2022-07-30T06:45:57.748Z,58.12
2022-07-30T06:46:57.964Z,57.73
2022-07-30T06:47:57.735Z,58.31
2022-07-30T06:48:57.864Z,57.54
2022-07-30T06:49:57.815Z,57.64
2022-07-30T06:50:57.819Z,57.73
2022-07-30T06:51:57.850Z,57.83
2022-07-30T06:52:58.011Z,57.83
2022-07-30T06:54:57.956Z,58.03
2022-07-30T06:56:00.294Z,58.12
2022-07-30T06:56:58.250Z,58.12
2022-07-30T06:57:58.148Z,58.03
2022-07-30T06:58:58.072Z,58.12
2022-07-30T06:59:58.425Z,58.12
2022-07-30T07:01:58.258Z,57.54
2022-07-30T07:02:58.197Z,57.93
2022-07-30T07:05:58.295Z,57.73
2022-07-30T07:06:58.727Z,57.64
2022-07-30T07:07:59.801Z,57.57
2022-07-30T07:08:58.392Z,57.64
2022-07-30T07:09:58.521Z,57.57
2022-07-30T07:10:58.449Z,57.83
2022-07-30T07:11:58.484Z,57.73
2022-07-30T07:12:58.826Z,57.83
2022-07-30T07:14:04.044Z,57.73
2022-07-30T07:14:58.647Z,57.67
2022-07-30T07:15:58.609Z,57.57
2022-07-30T07:17:58.705Z,57.83
2022-07-30T07:18:59.002Z,57.47
2022-07-30T07:20:00.259Z,57.34
2022-07-30T07:20:58.786Z,57.28
2022-07-30T07:21:58.800Z,57.28
2022-07-30T07:22:58.830Z,57.37
2022-07-30T07:23:58.913Z,57.47
2022-07-30T07:24:58.895Z,57.47
2022-07-30T07:25:58.942Z,57.37
2022-07-30T07:26:59.433Z,57.76
2022-07-30T07:28:11.700Z,57.37
2022-07-30T07:29:02.216Z,57.47
2022-07-30T07:30:05.011Z,57.28
2022-07-30T07:32:06.199Z,57.47
2022-07-30T07:32:59.147Z,57.37
2022-07-30T07:33:59.181Z,57.37
2022-07-30T07:34:59.262Z,57.47
2022-07-30T07:35:59.242Z,56.89
2022-07-30T07:36:59.540Z,57.44
2022-07-30T07:37:59.315Z,57.47
2022-07-30T07:38:59.337Z,57.37
2022-07-30T07:39:59.392Z,57.34
2022-07-30T07:40:59.402Z,57.37
2022-07-30T07:41:59.435Z,57.28
2022-07-30T07:42:59.493Z,57.37
2022-07-30T07:43:59.497Z,57.37
2022-07-30T07:44:59.828Z,57.47
2022-07-30T07:45:59.788Z,57.28
2022-07-30T07:47:00.031Z,57.28
2022-07-30T07:47:59.754Z,57.37
2022-07-30T07:48:59.896Z,57.64
2022-07-30T07:49:59.866Z,57.18
2022-07-30T07:51:00.750Z,57.47
2022-07-30T07:52:00.056Z,57.67
2022-07-30T07:52:59.783Z,57.37
2022-07-30T07:54:19.913Z,57.18
2022-07-30T07:55:00.144Z,57.28
2022-07-30T07:55:59.877Z,57.34
2022-07-30T07:57:00.789Z,57.28
2022-07-30T07:57:59.995Z,57.08
2022-07-30T07:58:59.971Z,57.25
2022-07-30T08:00:00.046Z,57.37
2022-07-30T08:01:00.085Z,57.25
2022-07-30T08:02:00.132Z,57.28
2022-07-30T08:03:00.194Z,57.47
2022-07-30T08:04:00.128Z,57.37
2022-07-30T08:05:00.461Z,57.37
2022-07-30T08:06:05.674Z,57.47
2022-07-30T08:07:00.447Z,57.57
2022-07-30T08:08:00.255Z,57.08
2022-07-30T08:09:00.289Z,57.37
2022-07-30T08:10:00.322Z,57.37
2022-07-30T08:11:00.361Z,57.37
2022-07-30T08:12:00.391Z,57.37
2022-07-30T08:13:00.411Z,57.18
2022-07-30T08:14:00.458Z,56.98
2022-07-30T08:15:00.477Z,56.98
2022-07-30T08:16:00.509Z,56.89
2022-07-30T08:17:01.377Z,56.98
2022-07-30T08:18:00.586Z,57.28
2022-07-30T08:19:00.602Z,57.08
2022-07-30T08:20:00.637Z,57.08
2022-07-30T08:21:00.667Z,57.08
2022-07-30T08:22:00.700Z,57.08
2022-07-30T08:23:00.729Z,57.47
2022-07-30T08:24:01.140Z,57.37
2022-07-30T08:26:00.828Z,56.89
2022-07-30T08:27:01.139Z,56.79
2022-07-30T08:28:00.963Z,56.70
2022-07-30T08:29:00.923Z,57.47
2022-07-30T08:30:00.951Z,56.79
2022-07-30T08:31:02.568Z,56.89
2022-07-30T08:32:01.262Z,56.89
2022-07-30T08:33:01.052Z,56.30
2022-07-30T08:34:01.086Z,56.40
2022-07-30T08:35:01.115Z,56.40
2022-07-30T08:36:08.966Z,56.50
2022-07-30T08:37:01.181Z,56.70
2022-07-30T08:38:01.208Z,56.50
2022-07-30T08:39:01.274Z,56.70
2022-07-30T08:40:01.272Z,56.60
2022-07-30T08:41:01.309Z,56.79
2022-07-30T08:42:01.597Z,56.89
2022-07-30T08:43:01.368Z,56.40
2022-07-30T08:44:01.402Z,56.52
2022-07-30T08:45:01.494Z,56.34
2022-07-30T08:46:01.462Z,56.40
2022-07-30T08:47:01.710Z,56.40
2022-07-30T08:48:01.576Z,56.52
2022-07-30T08:49:09.092Z,56.34
2022-07-30T08:50:01.647Z,56.52
2022-07-30T08:51:01.624Z,56.43
2022-07-30T08:52:01.992Z,56.70
2022-07-30T08:53:01.768Z,56.62
2022-07-30T08:54:01.717Z,56.43
2022-07-30T08:55:01.754Z,56.21
2022-07-30T08:56:01.839Z,56.40
2022-07-30T08:57:01.815Z,56.52
2022-07-30T08:59:01.990Z,56.52
2022-07-30T09:00:02.168Z,55.94
2022-07-30T09:01:01.946Z,56.14
2022-07-30T09:02:02.287Z,56.52
2022-07-30T09:03:02.104Z,56.24
2022-07-30T09:04:02.176Z,56.34
2022-07-30T09:05:02.087Z,56.34
2022-07-30T09:06:02.117Z,56.52
2022-07-30T09:07:02.550Z,56.52
2022-07-30T09:08:03.260Z,56.43
2022-07-30T09:09:02.202Z,56.52
2022-07-30T09:10:02.326Z,55.94
2022-07-30T09:11:02.261Z,56.34
2022-07-30T09:12:02.300Z,56.24
2022-07-30T09:13:02.629Z,56.52
2022-07-30T09:14:04.858Z,55.94
2022-07-30T09:15:02.390Z,56.24
2022-07-30T09:16:02.478Z,55.94
2022-07-30T09:17:02.730Z,55.75
2022-07-30T09:18:02.491Z,55.75
2022-07-30T09:19:02.533Z,55.85
2022-07-30T09:20:02.894Z,56.04
2022-07-30T09:21:02.598Z,56.04
2022-07-30T09:22:02.616Z,56.04
2022-07-30T09:23:02.647Z,56.14
2022-07-30T09:24:02.733Z,55.94
2022-07-30T09:25:02.710Z,55.65
2022-07-30T09:26:02.751Z,56.24
2022-07-30T09:27:03.509Z,55.94
2022-07-30T09:28:02.811Z,55.94
2022-07-30T09:29:02.841Z,55.85
2022-07-30T09:30:02.891Z,55.94
2022-07-30T09:31:02.902Z,55.85
2022-07-30T09:32:03.353Z,56.04
2022-07-30T09:33:03.024Z,55.75
2022-07-30T09:34:03.389Z,55.85
2022-07-30T09:35:03.034Z,55.85
2022-07-30T09:36:03.070Z,55.75
2022-07-30T09:37:03.461Z,55.55
2022-07-30T09:38:06.453Z,55.75
2022-07-30T09:39:03.164Z,55.94
2022-07-30T09:40:03.198Z,55.98
2022-07-30T09:41:12.337Z,55.94
2022-07-30T09:42:03.847Z,55.94
2022-07-30T09:43:03.318Z,55.65
2022-07-30T09:44:03.388Z,55.65
2022-07-30T09:45:03.357Z,55.94
2022-07-30T09:46:03.390Z,55.85
2022-07-30T09:48:03.455Z,55.85
2022-07-30T09:49:03.623Z,55.85
2022-07-30T09:50:07.379Z,55.85
2022-07-30T09:51:03.553Z,55.85
2022-07-30T09:52:03.656Z,55.65
2022-07-30T09:53:03.674Z,55.75
2022-07-30T09:54:03.997Z,55.65
2022-07-30T09:55:03.752Z,55.85
2022-07-30T09:56:03.713Z,55.85
2022-07-30T09:57:03.750Z,56.04
2022-07-30T09:58:03.881Z,56.04
2022-07-30T10:00:03.839Z,55.75
2022-07-30T10:01:03.883Z,55.65
2022-07-30T10:02:09.978Z,55.85
2022-07-30T10:03:12.662Z,55.85
2022-07-30T10:04:03.967Z,55.65
2022-07-30T10:05:04.004Z,55.85
2022-07-30T10:06:04.112Z,55.46
2022-07-30T10:07:04.373Z,55.27
2022-07-30T10:08:09.369Z,55.46
2022-07-30T10:09:13.977Z,55.65
2022-07-30T10:10:06.196Z,55.65
2022-07-30T10:11:05.189Z,55.85
2022-07-30T10:12:04.822Z,55.75
2022-07-30T10:13:04.833Z,55.65
2022-07-30T10:14:04.292Z,55.75
2022-07-30T10:15:06.226Z,55.55
2022-07-30T10:16:04.358Z,55.27
2022-07-30T10:18:06.339Z,55.75
2022-07-30T10:19:04.766Z,55.55
2022-07-30T10:20:08.340Z,55.46
2022-07-30T10:21:05.498Z,55.68
2022-07-30T10:22:04.866Z,55.55
2022-07-30T10:23:08.790Z,55.65
2022-07-30T10:24:04.633Z,55.65
2022-07-30T10:25:05.286Z,55.58
2022-07-30T10:26:04.926Z,55.55
2022-07-30T10:27:06.231Z,55.36
2022-07-30T10:28:04.745Z,55.27
2022-07-30T10:29:04.771Z,55.65
2022-07-30T10:30:04.805Z,55.55
2022-07-30T10:31:08.303Z,55.55
2022-07-30T10:32:04.867Z,55.27
2022-07-30T10:33:05.196Z,55.65
2022-07-30T10:34:04.955Z,55.27
2022-07-30T10:35:04.968Z,55.46
2022-07-30T10:36:04.996Z,55.36
2022-07-30T10:37:06.801Z,55.17
2022-07-30T10:38:05.062Z,55.36
2022-07-30T10:39:05.091Z,55.55
2022-07-30T10:40:05.425Z,55.55
2022-07-30T10:41:05.155Z,55.55
2022-07-30T10:42:05.189Z,55.65
2022-07-30T10:43:05.219Z,55.65
2022-07-30T10:44:05.255Z,55.55
2022-07-30T10:45:05.287Z,55.65
2022-07-30T10:46:05.322Z,55.55
2022-07-30T10:47:07.186Z,55.46
2022-07-30T10:48:05.603Z,55.46
2022-07-30T10:49:05.451Z,55.55
2022-07-30T10:50:05.450Z,55.65
2022-07-30T10:51:05.504Z,55.68
2022-07-30T10:52:05.518Z,55.65
2022-07-30T10:54:05.647Z,55.55
2022-07-30T10:55:05.862Z,55.55
2022-07-30T10:56:05.641Z,55.65
2022-07-30T10:59:07.971Z,55.68
2022-07-30T11:00:05.774Z,55.55
2022-07-30T11:01:05.806Z,55.65
2022-07-30T11:02:06.632Z,55.58
2022-07-30T11:03:14.217Z,55.58
2022-07-30T11:04:05.900Z,55.49
2022-07-30T11:05:06.003Z,55.58
2022-07-30T11:06:05.964Z,55.68
2022-07-30T11:07:05.993Z,55.49
2022-07-30T11:08:06.051Z,55.49
2022-07-30T11:09:06.319Z,55.39
2022-07-30T11:10:09.547Z,55.68
2022-07-30T11:11:19.442Z,55.58
2022-07-30T11:12:06.785Z,55.78
2022-07-30T11:13:06.195Z,55.49
2022-07-30T11:14:06.219Z,55.29
2022-07-30T11:15:18.469Z,55.19
2022-07-30T11:16:07.527Z,55.19
2022-07-30T11:17:06.317Z,55.49
2022-07-30T11:18:12.909Z,55.10
2022-07-30T11:19:55.675Z,55.10
2022-07-30T11:20:06.413Z,55.17
2022-07-30T11:21:06.446Z,55.10
2022-07-30T11:22:06.500Z,54.80
2022-07-30T11:23:06.525Z,54.97
2022-07-30T11:24:06.541Z,55.19
2022-07-30T11:25:12.637Z,55.19
2022-07-30T11:26:07.139Z,55.00
2022-07-30T11:27:06.639Z,55.19
2022-07-30T11:28:06.724Z,55.10
2022-07-30T11:30:06.815Z,55.29
2022-07-30T11:31:10.492Z,55.10
2022-07-30T11:33:06.943Z,54.97
2022-07-30T11:34:07.167Z,54.97
2022-07-30T11:35:06.901Z,55.10
2022-07-30T11:36:07.031Z,55.00
2022-07-30T11:37:19.323Z,55.00
2022-07-30T11:39:07.616Z,55.07
2022-07-30T11:40:07.321Z,55.19
2022-07-30T11:41:07.100Z,55.19
2022-07-30T11:42:07.181Z,55.07
2022-07-30T11:43:07.155Z,55.10
2022-07-30T11:44:07.303Z,54.90
2022-07-30T11:45:07.394Z,54.90
2022-07-30T11:47:07.510Z,54.90
2022-07-30T11:48:07.597Z,55.10
2022-07-30T11:49:07.514Z,55.19
2022-07-30T11:50:07.642Z,54.80
2022-07-30T11:51:07.414Z,54.90
2022-07-30T11:52:07.446Z,54.90
2022-07-30T11:53:07.782Z,54.90
2022-07-30T11:54:07.529Z,54.80
2022-07-30T11:55:07.544Z,54.90
2022-07-30T11:56:07.579Z,54.80
2022-07-30T11:57:07.608Z,54.80
2022-07-30T11:58:07.716Z,54.80
2022-07-30T11:59:07.675Z,54.80
2022-07-30T12:00:08.007Z,54.61
2022-07-30T12:01:09.345Z,55.00
2022-07-30T12:02:07.776Z,55.00
2022-07-30T12:03:07.810Z,55.00
2022-07-30T12:05:07.872Z,55.00
2022-07-30T12:06:07.906Z,54.90
2022-07-30T12:07:08.258Z,54.80
2022-07-30T12:08:07.984Z,54.90
2022-07-30T12:09:08.107Z,54.80
2022-07-30T12:10:08.029Z,54.52
2022-07-30T12:11:08.110Z,54.80
2022-07-30T12:12:08.139Z,54.90
2022-07-30T12:13:08.209Z,54.42
2022-07-30T12:14:08.427Z,54.52
2022-07-30T12:15:08.195Z,54.52
2022-07-30T12:16:08.334Z,54.42
2022-07-30T12:17:09.823Z,54.52
2022-07-30T12:18:25.795Z,54.52
2022-07-30T12:19:09.686Z,54.32
2022-07-30T12:20:08.372Z,54.42
2022-07-30T12:21:08.529Z,54.22
2022-07-30T12:22:08.475Z,54.35
2022-07-30T12:23:08.485Z,54.22
2022-07-30T12:24:08.554Z,54.52
2022-07-30T12:25:08.527Z,54.42
2022-07-30T12:26:08.551Z,54.52
2022-07-30T12:27:08.618Z,54.61
2022-07-30T12:28:08.675Z,54.42
2022-07-30T12:29:08.674Z,54.54
2022-07-30T12:30:08.734Z,54.61
2022-07-30T12:31:08.745Z,54.61
2022-07-30T12:32:08.977Z,54.52
2022-07-30T12:33:09.120Z,54.03
2022-07-30T12:34:08.849Z,54.54
2022-07-30T12:35:08.944Z,54.64
2022-07-30T12:36:08.947Z,54.44
2022-07-30T12:37:08.933Z,54.61
2022-07-30T12:38:08.984Z,54.15
2022-07-30T12:39:09.346Z,54.15
2022-07-30T12:40:14.364Z,54.05
2022-07-30T12:41:09.087Z,53.96
2022-07-30T12:42:09.086Z,54.05
2022-07-30T12:43:13.617Z,54.25
2022-07-30T12:44:09.166Z,53.96
2022-07-30T12:45:09.224Z,53.86
2022-07-30T12:46:13.163Z,53.96
2022-07-30T12:47:09.303Z,54.25
2022-07-30T12:48:09.299Z,54.35
2022-07-30T12:49:21.622Z,54.25
2022-07-30T12:50:09.494Z,53.96
2022-07-30T12:51:09.418Z,54.15
2022-07-30T12:52:13.302Z,54.15
2022-07-30T12:53:09.470Z,54.35
2022-07-30T12:54:09.498Z,54.25
2022-07-30T12:55:09.538Z,54.15
2022-07-30T12:56:09.558Z,54.25
2022-07-30T12:57:09.567Z,54.25
2022-07-30T12:58:09.653Z,54.35
2022-07-30T12:59:09.980Z,54.25
2022-07-30T13:00:09.713Z,54.35
2022-07-30T13:01:09.760Z,54.15
2022-07-30T13:02:09.765Z,54.25
2022-07-30T13:03:09.787Z,54.25
2022-07-30T13:04:09.895Z,54.25
2022-07-30T13:05:11.903Z,54.35
2022-07-30T13:06:09.893Z,54.15
2022-07-30T13:07:09.963Z,54.25
2022-07-30T13:08:09.957Z,54.15
2022-07-30T13:09:09.969Z,54.15
2022-07-30T13:10:10.067Z,54.35
2022-07-30T13:11:10.181Z,54.15
2022-07-30T13:12:10.428Z,53.96
2022-07-30T13:13:10.336Z,53.57
2022-07-30T13:14:10.148Z,53.77
2022-07-30T13:15:10.480Z,53.67
2022-07-30T13:16:10.224Z,53.77
2022-07-30T13:17:10.245Z,53.77
2022-07-30T13:18:10.575Z,53.67
2022-07-30T13:19:10.334Z,53.77
2022-07-30T13:20:10.897Z,53.67
2022-07-30T13:21:10.504Z,53.47
2022-07-30T13:22:10.603Z,53.67
2022-07-30T13:23:10.431Z,53.67
2022-07-30T13:24:10.773Z,53.67
2022-07-30T13:25:10.495Z,53.28
2022-07-30T13:26:10.528Z,53.28
2022-07-30T13:27:10.588Z,53.38
2022-07-30T13:28:10.576Z,53.40
2022-07-30T13:29:10.650Z,53.40
2022-07-30T13:30:10.946Z,53.50
2022-07-30T13:31:10.680Z,53.59
2022-07-30T13:32:10.709Z,53.59
2022-07-30T13:33:10.739Z,53.20
2022-07-30T13:34:10.780Z,52.92
2022-07-30T13:35:10.805Z,53.20
2022-07-30T13:36:10.837Z,53.40
2022-07-30T13:37:11.126Z,53.30
2022-07-30T13:38:10.908Z,53.01
2022-07-30T13:39:10.953Z,52.92
2022-07-30T13:42:11.076Z,52.94
2022-07-30T13:43:11.080Z,52.62
2022-07-30T13:44:11.102Z,52.72
2022-07-30T13:45:11.133Z,52.65